sensor_id;sensor_type;location;lat;lon;timestamp;P1;durP1;ratioP1;P2;durP2;ratioP2
3541;SDS011;1785;47.388;8.538;2022-09-24T00:01:25;11.60;;;6.33;;
3541;SDS011;1785;47.388;8.538;2022-09-24T00:03:53;8.47;;;6.77;;
3541;SDS011;1785;47.388;8.538;2022-09-24T00:06:21;9.50;;;6.70;;
3541;SDS011;1785;47.388;8.538;2022-09-24T00:08:49;6.87;;;6.27;;
3541;SDS011;1785;47.388;8.538;2022-09-24T00:11:17;7.20;;;6.50;;
3541;SDS011;1785;47.388;8.538;2022-09-24T00:13:43;6.93;;;6.40;;
3541;SDS011;1785;47.388;8.538;2022-09-24T00:16:11;11.23;;;5.80;;
3541;SDS011;1785;47.388;8.538;2022-09-24T00:18:39;6.00;;;5.53;;
3541;SDS011;1785;47.388;8.538;2022-09-24T00:21:13;5.53;;;5.03;;
3541;SDS011;1785;47.388;8.538;2022-09-24T00:23:40;8.60;;;5.77;;
3541;SDS011;1785;47.388;8.538;2022-09-24T00:26:08;6.20;;;5.80;;
3541;SDS011;1785;47.388;8.538;2022-09-24T00:28:53;7.53;;;6.37;;
3541;SDS011;1785;47.388;8.538;2022-09-24T00:31:20;6.27;;;5.77;;
3541;SDS011;1785;47.388;8.538;2022-09-24T00:33:46;5.33;;;5.00;;
3541;SDS011;1785;47.388;8.538;2022-09-24T00:36:16;7.47;;;6.80;;
3541;SDS011;1785;47.388;8.538;2022-09-24T00:38:44;7.07;;;5.97;;
3541;SDS011;1785;47.388;8.538;2022-09-24T00:41:13;9.17;;;7.10;;
3541;SDS011;1785;47.388;8.538;2022-09-24T00:43:40;7.93;;;7.23;;
3541;SDS011;1785;47.388;8.538;2022-09-24T00:46:07;8.27;;;7.47;;
3541;SDS011;1785;47.388;8.538;2022-09-24T00:48:40;10.83;;;7.10;;
3541;SDS011;1785;47.388;8.538;2022-09-24T00:51:07;8.17;;;7.47;;
3541;SDS011;1785;47.388;8.538;2022-09-24T00:53:35;7.63;;;7.03;;
3541;SDS011;1785;47.388;8.538;2022-09-24T00:56:02;7.70;;;7.00;;
3541;SDS011;1785;47.388;8.538;2022-09-24T00:58:29;7.53;;;6.93;;
3541;SDS011;1785;47.388;8.538;2022-09-24T01:00:56;7.50;;;6.80;;
3541;SDS011;1785;47.388;8.538;2022-09-24T01:03:25;7.77;;;7.17;;
3541;SDS011;1785;47.388;8.538;2022-09-24T01:05:53;10.30;;;9.07;;
3541;SDS011;1785;47.388;8.538;2022-09-24T01:08:20;9.77;;;8.77;;
3541;SDS011;1785;47.388;8.538;2022-09-24T01:10:50;10.07;;;9.07;;
3541;SDS011;1785;47.388;8.538;2022-09-24T01:13:44;10.77;;;9.70;;
3541;SDS011;1785;47.388;8.538;2022-09-24T01:16:24;10.93;;;9.83;;
3541;SDS011;1785;47.388;8.538;2022-09-24T01:18:59;10.70;;;9.90;;
3541;SDS011;1785;47.388;8.538;2022-09-24T01:21:37;11.90;;;10.80;;
3541;SDS011;1785;47.388;8.538;2022-09-24T01:24:22;11.03;;;10.00;;
3541;SDS011;1785;47.388;8.538;2022-09-24T01:27:01;11.43;;;10.23;;
3541;SDS011;1785;47.388;8.538;2022-09-24T01:29:34;11.50;;;10.43;;
3541;SDS011;1785;47.388;8.538;2022-09-24T01:32:09;10.90;;;9.67;;
3541;SDS011;1785;47.388;8.538;2022-09-24T01:34:41;11.30;;;10.27;;
3541;SDS011;1785;47.388;8.538;2022-09-24T01:37:12;14.33;;;11.33;;
3541;SDS011;1785;47.388;8.538;2022-09-24T01:39:41;15.00;;;11.60;;
3541;SDS011;1785;47.388;8.538;2022-09-24T01:42:11;11.63;;;10.53;;
3541;SDS011;1785;47.388;8.538;2022-09-24T01:44:40;11.33;;;10.33;;
3541;SDS011;1785;47.388;8.538;2022-09-24T01:47:08;12.00;;;10.17;;
3541;SDS011;1785;47.388;8.538;2022-09-24T01:49:37;11.23;;;10.10;;
3541;SDS011;1785;47.388;8.538;2022-09-24T01:52:04;11.77;;;10.77;;
3541;SDS011;1785;47.388;8.538;2022-09-24T01:54:35;11.87;;;10.40;;
3541;SDS011;1785;47.388;8.538;2022-09-24T01:57:06;14.30;;;10.97;;
3541;SDS011;1785;47.388;8.538;2022-09-24T01:59:38;11.57;;;10.50;;
3541;SDS011;1785;47.388;8.538;2022-09-24T02:02:10;11.97;;;10.87;;
3541;SDS011;1785;47.388;8.538;2022-09-24T02:04:40;12.03;;;10.93;;
3541;SDS011;1785;47.388;8.538;2022-09-24T02:07:10;11.80;;;10.70;;
3541;SDS011;1785;47.388;8.538;2022-09-24T02:09:41;12.50;;;11.27;;
3541;SDS011;1785;47.388;8.538;2022-09-24T02:12:08;12.77;;;11.60;;
3541;SDS011;1785;47.388;8.538;2022-09-24T02:14:43;12.07;;;10.90;;
3541;SDS011;1785;47.388;8.538;2022-09-24T02:17:12;14.27;;;11.80;;
3541;SDS011;1785;47.388;8.538;2022-09-24T02:19:40;13.40;;;11.63;;
3541;SDS011;1785;47.388;8.538;2022-09-24T02:22:07;14.80;;;11.73;;
3541;SDS011;1785;47.388;8.538;2022-09-24T02:24:36;12.10;;;11.03;;
3541;SDS011;1785;47.388;8.538;2022-09-24T02:27:07;12.60;;;11.60;;
3541;SDS011;1785;47.388;8.538;2022-09-24T02:29:34;13.77;;;12.53;;
3541;SDS011;1785;47.388;8.538;2022-09-24T02:32:01;13.80;;;12.40;;
3541;SDS011;1785;47.388;8.538;2022-09-24T02:34:32;15.60;;;11.57;;
3541;SDS011;1785;47.388;8.538;2022-09-24T02:37:03;13.20;;;12.10;;
3541;SDS011;1785;47.388;8.538;2022-09-24T02:39:31;13.10;;;11.90;;
3541;SDS011;1785;47.388;8.538;2022-09-24T02:41:58;12.43;;;11.27;;
3541;SDS011;1785;47.388;8.538;2022-09-24T02:44:25;12.20;;;11.00;;
3541;SDS011;1785;47.388;8.538;2022-09-24T02:46:51;12.43;;;11.27;;
3541;SDS011;1785;47.388;8.538;2022-09-24T02:49:18;12.00;;;10.90;;
3541;SDS011;1785;47.388;8.538;2022-09-24T02:51:44;13.13;;;11.83;;
3541;SDS011;1785;47.388;8.538;2022-09-24T02:54:11;13.80;;;12.63;;
3541;SDS011;1785;47.388;8.538;2022-09-24T02:56:37;13.63;;;12.40;;
3541;SDS011;1785;47.388;8.538;2022-09-24T02:59:04;11.37;;;10.47;;
3541;SDS011;1785;47.388;8.538;2022-09-24T03:01:31;11.70;;;10.60;;
3541;SDS011;1785;47.388;8.538;2022-09-24T03:03:58;10.77;;;9.80;;
3541;SDS011;1785;47.388;8.538;2022-09-24T03:06:25;9.77;;;8.52;;
3541;SDS011;1785;47.388;8.538;2022-09-24T03:08:51;11.27;;;10.00;;
3541;SDS011;1785;47.388;8.538;2022-09-24T03:11:18;11.80;;;10.80;;
3541;SDS011;1785;47.388;8.538;2022-09-24T03:13:46;11.27;;;9.33;;
3541;SDS011;1785;47.388;8.538;2022-09-24T03:16:13;11.33;;;10.10;;
3541;SDS011;1785;47.388;8.538;2022-09-24T03:18:40;11.97;;;9.20;;
3541;SDS011;1785;47.388;8.538;2022-09-24T03:21:06;9.60;;;8.83;;
3541;SDS011;1785;47.388;8.538;2022-09-24T03:23:36;12.53;;;9.50;;
3541;SDS011;1785;47.388;8.538;2022-09-24T03:26:02;10.77;;;9.80;;
3541;SDS011;1785;47.388;8.538;2022-09-24T03:28:29;10.53;;;9.50;;
3541;SDS011;1785;47.388;8.538;2022-09-24T03:30:55;9.30;;;8.50;;
3541;SDS011;1785;47.388;8.538;2022-09-24T03:33:24;7.97;;;7.37;;
3541;SDS011;1785;47.388;8.538;2022-09-24T03:35:53;9.47;;;8.67;;
3541;SDS011;1785;47.388;8.538;2022-09-24T03:38:21;12.03;;;9.20;;
3541;SDS011;1785;47.388;8.538;2022-09-24T03:40:48;10.00;;;9.20;;
3541;SDS011;1785;47.388;8.538;2022-09-24T03:43:14;9.60;;;8.73;;
3541;SDS011;1785;47.388;8.538;2022-09-24T03:45:40;8.70;;;8.03;;
3541;SDS011;1785;47.388;8.538;2022-09-24T03:48:07;8.23;;;7.47;;
3541;SDS011;1785;47.388;8.538;2022-09-24T03:50:36;8.87;;;8.13;;
3541;SDS011;1785;47.388;8.538;2022-09-24T03:53:05;8.60;;;7.90;;
3541;SDS011;1785;47.388;8.538;2022-09-24T03:55:32;10.03;;;9.03;;
3541;SDS011;1785;47.388;8.538;2022-09-24T03:57:59;10.00;;;7.57;;
3541;SDS011;1785;47.388;8.538;2022-09-24T04:00:25;8.40;;;7.60;;
3541;SDS011;1785;47.388;8.538;2022-09-24T04:02:52;8.40;;;7.60;;
3541;SDS011;1785;47.388;8.538;2022-09-24T04:05:18;7.95;;;7.25;;
3541;SDS011;1785;47.388;8.538;2022-09-24T04:07:46;8.67;;;7.97;;
3541;SDS011;1785;47.388;8.538;2022-09-24T04:10:12;9.43;;;8.63;;
3541;SDS011;1785;47.388;8.538;2022-09-24T04:12:39;10.53;;;8.20;;
3541;SDS011;1785;47.388;8.538;2022-09-24T04:15:06;9.13;;;8.33;;
3541;SDS011;1785;47.388;8.538;2022-09-24T04:17:33;9.33;;;8.60;;
3541;SDS011;1785;47.388;8.538;2022-09-24T04:19:59;10.27;;;9.27;;
3541;SDS011;1785;47.388;8.538;2022-09-24T04:22:26;10.83;;;10.03;;
3541;SDS011;1785;47.388;8.538;2022-09-24T04:24:53;11.50;;;10.50;;
3541;SDS011;1785;47.388;8.538;2022-09-24T04:27:19;12.33;;;11.40;;
3541;SDS011;1785;47.388;8.538;2022-09-24T04:29:46;13.80;;;12.47;;
3541;SDS011;1785;47.388;8.538;2022-09-24T04:32:13;13.93;;;12.67;;
3541;SDS011;1785;47.388;8.538;2022-09-24T04:34:39;13.40;;;12.20;;
3541;SDS011;1785;47.388;8.538;2022-09-24T04:37:05;13.80;;;12.60;;
3541;SDS011;1785;47.388;8.538;2022-09-24T04:39:33;15.10;;;13.53;;
3541;SDS011;1785;47.388;8.538;2022-09-24T04:42:00;14.17;;;12.83;;
3541;SDS011;1785;47.388;8.538;2022-09-24T04:44:26;14.47;;;13.00;;
3541;SDS011;1785;47.388;8.538;2022-09-24T04:46:53;13.80;;;12.57;;
3541;SDS011;1785;47.388;8.538;2022-09-24T04:49:27;15.47;;;13.90;;
3541;SDS011;1785;47.388;8.538;2022-09-24T04:51:54;15.30;;;13.80;;
3541;SDS011;1785;47.388;8.538;2022-09-24T04:54:22;15.00;;;13.57;;
3541;SDS011;1785;47.388;8.538;2022-09-24T04:56:48;14.90;;;13.60;;
3541;SDS011;1785;47.388;8.538;2022-09-24T04:59:15;15.27;;;13.77;;
3541;SDS011;1785;47.388;8.538;2022-09-24T05:01:41;16.53;;;14.83;;
3541;SDS011;1785;47.388;8.538;2022-09-24T05:04:07;14.87;;;13.57;;
3541;SDS011;1785;47.388;8.538;2022-09-24T05:06:34;9.40;;;8.27;;
3541;SDS011;1785;47.388;8.538;2022-09-24T05:09:01;11.00;;;9.50;;
3541;SDS011;1785;47.388;8.538;2022-09-24T05:11:27;9.00;;;8.10;;
3541;SDS011;1785;47.388;8.538;2022-09-24T05:13:53;8.70;;;7.93;;
3541;SDS011;1785;47.388;8.538;2022-09-24T05:16:19;8.93;;;7.50;;
3541;SDS011;1785;47.388;8.538;2022-09-24T05:18:46;7.73;;;7.03;;
3541;SDS011;1785;47.388;8.538;2022-09-24T05:21:12;7.80;;;6.77;;
3541;SDS011;1785;47.388;8.538;2022-09-24T05:23:40;6.47;;;5.87;;
3541;SDS011;1785;47.388;8.538;2022-09-24T05:26:06;6.70;;;5.10;;
3541;SDS011;1785;47.388;8.538;2022-09-24T05:28:51;5.87;;;5.37;;
3541;SDS011;1785;47.388;8.538;2022-09-24T05:31:17;5.13;;;4.73;;
3541;SDS011;1785;47.388;8.538;2022-09-24T05:33:44;6.33;;;5.03;;
3541;SDS011;1785;47.388;8.538;2022-09-24T05:36:10;5.27;;;4.57;;
3541;SDS011;1785;47.388;8.538;2022-09-24T05:38:36;4.50;;;4.00;;
3541;SDS011;1785;47.388;8.538;2022-09-24T05:41:03;4.53;;;4.20;;
3541;SDS011;1785;47.388;8.538;2022-09-24T05:43:30;5.10;;;4.70;;
3541;SDS011;1785;47.388;8.538;2022-09-24T05:45:56;7.40;;;4.83;;
3541;SDS011;1785;47.388;8.538;2022-09-24T05:48:22;5.10;;;4.53;;
3541;SDS011;1785;47.388;8.538;2022-09-24T05:50:49;5.43;;;4.93;;
3541;SDS011;1785;47.388;8.538;2022-09-24T05:53:19;16.30;;;5.10;;
3541;SDS011;1785;47.388;8.538;2022-09-24T05:55:46;4.60;;;4.20;;
3541;SDS011;1785;47.388;8.538;2022-09-24T05:58:13;5.67;;;5.13;;
3541;SDS011;1785;47.388;8.538;2022-09-24T06:00:39;5.57;;;5.07;;
3541;SDS011;1785;47.388;8.538;2022-09-24T06:03:07;5.60;;;5.20;;
3541;SDS011;1785;47.388;8.538;2022-09-24T06:05:36;6.00;;;5.20;;
3541;SDS011;1785;47.388;8.538;2022-09-24T06:08:03;5.10;;;4.70;;
3541;SDS011;1785;47.388;8.538;2022-09-24T06:10:30;5.37;;;4.97;;
3541;SDS011;1785;47.388;8.538;2022-09-24T06:12:56;6.63;;;6.03;;
3541;SDS011;1785;47.388;8.538;2022-09-24T06:15:24;6.50;;;5.20;;
3541;SDS011;1785;47.388;8.538;2022-09-24T06:17:52;9.33;;;5.50;;
3541;SDS011;1785;47.388;8.538;2022-09-24T06:20:19;5.50;;;5.00;;
3541;SDS011;1785;47.388;8.538;2022-09-24T06:22:45;6.40;;;5.90;;
3541;SDS011;1785;47.388;8.538;2022-09-24T06:25:11;6.07;;;5.47;;
3541;SDS011;1785;47.388;8.538;2022-09-24T06:27:37;6.53;;;5.97;;
3541;SDS011;1785;47.388;8.538;2022-09-24T06:30:04;8.70;;;5.97;;
3541;SDS011;1785;47.388;8.538;2022-09-24T06:32:32;6.17;;;5.23;;
3541;SDS011;1785;47.388;8.538;2022-09-24T06:34:59;7.27;;;6.57;;
3541;SDS011;1785;47.388;8.538;2022-09-24T06:37:25;8.27;;;6.37;;
3541;SDS011;1785;47.388;8.538;2022-09-24T06:39:51;6.87;;;6.37;;
3541;SDS011;1785;47.388;8.538;2022-09-24T06:42:17;8.17;;;7.47;;
3541;SDS011;1785;47.388;8.538;2022-09-24T06:44:44;6.13;;;5.00;;
3541;SDS011;1785;47.388;8.538;2022-09-24T06:47:10;6.47;;;5.87;;
3541;SDS011;1785;47.388;8.538;2022-09-24T06:49:37;5.60;;;5.20;;
3541;SDS011;1785;47.388;8.538;2022-09-24T06:52:04;7.60;;;6.10;;
3541;SDS011;1785;47.388;8.538;2022-09-24T06:54:31;6.57;;;5.83;;
3541;SDS011;1785;47.388;8.538;2022-09-24T06:56:57;6.63;;;6.00;;
3541;SDS011;1785;47.388;8.538;2022-09-24T06:59:23;6.90;;;5.90;;
3541;SDS011;1785;47.388;8.538;2022-09-24T07:01:49;6.63;;;6.13;;
3541;SDS011;1785;47.388;8.538;2022-09-24T07:04:16;6.80;;;6.20;;
3541;SDS011;1785;47.388;8.538;2022-09-24T07:06:43;6.80;;;6.20;;
3541;SDS011;1785;47.388;8.538;2022-09-24T07:09:28;7.40;;;6.30;;
3541;SDS011;1785;47.388;8.538;2022-09-24T07:11:56;8.93;;;6.23;;
3541;SDS011;1785;47.388;8.538;2022-09-24T07:14:25;7.10;;;6.10;;
3541;SDS011;1785;47.388;8.538;2022-09-24T07:16:52;6.00;;;5.53;;
3541;SDS011;1785;47.388;8.538;2022-09-24T07:19:18;6.63;;;6.10;;
3541;SDS011;1785;47.388;8.538;2022-09-24T07:21:48;7.63;;;7.00;;
3541;SDS011;1785;47.388;8.538;2022-09-24T07:24:14;8.53;;;6.60;;
3541;SDS011;1785;47.388;8.538;2022-09-24T07:26:41;6.60;;;6.00;;
3541;SDS011;1785;47.388;8.538;2022-09-24T07:29:07;7.50;;;6.90;;
3541;SDS011;1785;47.388;8.538;2022-09-24T07:31:33;6.80;;;6.10;;
3541;SDS011;1785;47.388;8.538;2022-09-24T07:34:00;9.40;;;6.93;;
3541;SDS011;1785;47.388;8.538;2022-09-24T07:36:26;7.43;;;6.80;;
3541;SDS011;1785;47.388;8.538;2022-09-24T07:38:56;7.13;;;6.43;;
3541;SDS011;1785;47.388;8.538;2022-09-24T07:41:23;8.03;;;7.33;;
3541;SDS011;1785;47.388;8.538;2022-09-24T07:43:49;7.60;;;6.03;;
3541;SDS011;1785;47.388;8.538;2022-09-24T07:46:16;7.80;;;6.97;;
3541;SDS011;1785;47.388;8.538;2022-09-24T07:48:42;6.77;;;6.27;;
3541;SDS011;1785;47.388;8.538;2022-09-24T07:51:08;7.00;;;6.30;;
3541;SDS011;1785;47.388;8.538;2022-09-24T07:53:35;7.37;;;6.63;;
3541;SDS011;1785;47.388;8.538;2022-09-24T07:56:02;7.53;;;6.93;;
3541;SDS011;1785;47.388;8.538;2022-09-24T07:58:29;6.73;;;6.13;;
3541;SDS011;1785;47.388;8.538;2022-09-24T08:00:56;7.20;;;6.60;;
3541;SDS011;1785;47.388;8.538;2022-09-24T08:03:23;7.40;;;6.63;;
3541;SDS011;1785;47.388;8.538;2022-09-24T08:05:49;7.13;;;6.27;;
3541;SDS011;1785;47.388;8.538;2022-09-24T08:08:20;7.40;;;6.80;;
3541;SDS011;1785;47.388;8.538;2022-09-24T08:10:47;7.67;;;6.97;;
3541;SDS011;1785;47.388;8.538;2022-09-24T08:13:14;8.43;;;7.07;;
3541;SDS011;1785;47.388;8.538;2022-09-24T08:15:40;6.80;;;6.17;;
3541;SDS011;1785;47.388;8.538;2022-09-24T08:18:06;6.90;;;6.30;;
3541;SDS011;1785;47.388;8.538;2022-09-24T08:20:33;7.30;;;6.70;;
3541;SDS011;1785;47.388;8.538;2022-09-24T08:23:02;6.43;;;5.90;;
3541;SDS011;1785;47.388;8.538;2022-09-24T08:25:29;5.70;;;5.30;;
3541;SDS011;1785;47.388;8.538;2022-09-24T08:27:59;8.70;;;5.87;;
3541;SDS011;1785;47.388;8.538;2022-09-24T08:30:27;5.50;;;5.00;;
3541;SDS011;1785;47.388;8.538;2022-09-24T08:32:55;7.00;;;6.30;;
3541;SDS011;1785;47.388;8.538;2022-09-24T08:35:21;5.80;;;5.30;;
3541;SDS011;1785;47.388;8.538;2022-09-24T08:37:48;7.13;;;6.53;;
3541;SDS011;1785;47.388;8.538;2022-09-24T08:40:15;6.93;;;6.33;;
3541;SDS011;1785;47.388;8.538;2022-09-24T08:42:46;6.17;;;5.67;;
3541;SDS011;1785;47.388;8.538;2022-09-24T08:45:15;6.63;;;6.13;;
3541;SDS011;1785;47.388;8.538;2022-09-24T08:48:03;6.07;;;5.57;;
3541;SDS011;1785;47.388;8.538;2022-09-24T08:50:34;6.40;;;5.77;;
3541;SDS011;1785;47.388;8.538;2022-09-24T08:53:06;4.93;;;4.47;;
3541;SDS011;1785;47.388;8.538;2022-09-24T08:55:40;5.07;;;4.60;;
3541;SDS011;1785;47.388;8.538;2022-09-24T09:01:02;5.50;;;5.00;;
3541;SDS011;1785;47.388;8.538;2022-09-24T09:03:42;5.40;;;4.90;;
3541;SDS011;1785;47.388;8.538;2022-09-24T09:06:16;6.00;;;5.50;;
3541;SDS011;1785;47.388;8.538;2022-09-24T09:08:58;5.43;;;4.23;;
3541;SDS011;1785;47.388;8.538;2022-09-24T09:11:33;5.33;;;4.83;;
3541;SDS011;1785;47.388;8.538;2022-09-24T09:14:02;6.57;;;5.03;;
3541;SDS011;1785;47.388;8.538;2022-09-24T09:16:35;4.70;;;4.30;;
3541;SDS011;1785;47.388;8.538;2022-09-24T09:19:08;5.10;;;4.60;;
3541;SDS011;1785;47.388;8.538;2022-09-24T09:21:39;5.30;;;4.80;;
3541;SDS011;1785;47.388;8.538;2022-09-24T09:24:11;4.30;;;4.07;;
3541;SDS011;1785;47.388;8.538;2022-09-24T09:26:42;5.40;;;4.90;;
3541;SDS011;1785;47.388;8.538;2022-09-24T09:29:12;5.93;;;5.43;;
3541;SDS011;1785;47.388;8.538;2022-09-24T09:31:42;5.20;;;4.80;;
3541;SDS011;1785;47.388;8.538;2022-09-24T09:34:23;6.70;;;6.00;;
3541;SDS011;1785;47.388;8.538;2022-09-24T09:37:05;6.20;;;5.77;;
3541;SDS011;1785;47.388;8.538;2022-09-24T09:39:42;5.80;;;5.00;;
3541;SDS011;1785;47.388;8.538;2022-09-24T09:42:18;5.20;;;4.80;;
3541;SDS011;1785;47.388;8.538;2022-09-24T09:44:54;5.43;;;4.93;;
3541;SDS011;1785;47.388;8.538;2022-09-24T09:47:22;5.47;;;4.97;;
3541;SDS011;1785;47.388;8.538;2022-09-24T09:49:59;5.90;;;5.37;;
3541;SDS011;1785;47.388;8.538;2022-09-24T09:52:30;6.33;;;5.83;;
3541;SDS011;1785;47.388;8.538;2022-09-24T09:55:00;6.90;;;6.20;;
3541;SDS011;1785;47.388;8.538;2022-09-24T09:57:30;5.80;;;5.20;;
3541;SDS011;1785;47.388;8.538;2022-09-24T09:59:58;6.40;;;5.90;;
3541;SDS011;1785;47.388;8.538;2022-09-24T10:02:26;6.50;;;5.90;;
3541;SDS011;1785;47.388;8.538;2022-09-24T10:04:55;5.73;;;5.23;;
3541;SDS011;1785;47.388;8.538;2022-09-24T10:07:25;6.57;;;6.07;;
3541;SDS011;1785;47.388;8.538;2022-09-24T10:09:59;5.53;;;5.03;;
3541;SDS011;1785;47.388;8.538;2022-09-24T10:12:27;4.90;;;4.50;;
3541;SDS011;1785;47.388;8.538;2022-09-24T10:14:58;5.63;;;5.10;;
3541;SDS011;1785;47.388;8.538;2022-09-24T10:17:26;4.93;;;4.53;;
3541;SDS011;1785;47.388;8.538;2022-09-24T10:19:56;5.10;;;4.80;;
3541;SDS011;1785;47.388;8.538;2022-09-24T10:22:25;7.70;;;4.53;;
3541;SDS011;1785;47.388;8.538;2022-09-24T10:24:53;4.03;;;3.73;;
3541;SDS011;1785;47.388;8.538;2022-09-24T10:27:25;4.93;;;4.53;;
3541;SDS011;1785;47.388;8.538;2022-09-24T10:29:56;5.60;;;5.20;;
3541;SDS011;1785;47.388;8.538;2022-09-24T10:32:42;4.50;;;4.10;;
3541;SDS011;1785;47.388;8.538;2022-09-24T10:35:20;4.50;;;4.20;;
3541;SDS011;1785;47.388;8.538;2022-09-24T10:37:50;5.17;;;4.77;;
3541;SDS011;1785;47.388;8.538;2022-09-24T10:40:19;4.93;;;4.53;;
3541;SDS011;1785;47.388;8.538;2022-09-24T10:42:53;4.80;;;4.40;;
3541;SDS011;1785;47.388;8.538;2022-09-24T10:45:21;4.63;;;4.30;;
3541;SDS011;1785;47.388;8.538;2022-09-24T10:48:10;5.13;;;4.73;;
3541;SDS011;1785;47.388;8.538;2022-09-24T10:50:45;5.40;;;5.00;;
3541;SDS011;1785;47.388;8.538;2022-09-24T10:53:22;6.55;;;4.13;;
3541;SDS011;1785;47.388;8.538;2022-09-24T10:56:00;4.17;;;3.80;;
3541;SDS011;1785;47.388;8.538;2022-09-24T10:58:40;4.60;;;4.20;;
3541;SDS011;1785;47.388;8.538;2022-09-24T11:01:21;7.83;;;4.60;;
3541;SDS011;1785;47.388;8.538;2022-09-24T11:04:03;5.23;;;4.83;;
3541;SDS011;1785;47.388;8.538;2022-09-24T11:06:48;6.27;;;5.70;;
3541;SDS011;1785;47.388;8.538;2022-09-24T11:09:35;6.00;;;5.60;;
3541;SDS011;1785;47.388;8.538;2022-09-24T11:12:12;8.33;;;6.80;;
3541;SDS011;1785;47.388;8.538;2022-09-24T11:14:53;4.87;;;4.40;;
3541;SDS011;1785;47.388;8.538;2022-09-24T11:17:33;6.30;;;5.80;;
3541;SDS011;1785;47.388;8.538;2022-09-24T11:20:23;7.07;;;5.50;;
3541;SDS011;1785;47.388;8.538;2022-09-24T11:23:03;4.50;;;4.20;;
3541;SDS011;1785;47.388;8.538;2022-09-24T11:25:42;5.23;;;4.80;;
3541;SDS011;1785;47.388;8.538;2022-09-24T11:28:21;5.23;;;4.73;;
3541;SDS011;1785;47.388;8.538;2022-09-24T11:31:03;5.40;;;5.00;;
3541;SDS011;1785;47.388;8.538;2022-09-24T11:33:47;4.63;;;4.27;;
3541;SDS011;1785;47.388;8.538;2022-09-24T11:36:29;5.60;;;5.00;;
3541;SDS011;1785;47.388;8.538;2022-09-24T11:39:11;5.57;;;4.70;;
3541;SDS011;1785;47.388;8.538;2022-09-24T11:41:47;4.50;;;4.17;;
3541;SDS011;1785;47.388;8.538;2022-09-24T11:44:29;5.63;;;5.23;;
3541;SDS011;1785;47.388;8.538;2022-09-24T11:47:49;5.13;;;4.73;;
3541;SDS011;1785;47.388;8.538;2022-09-24T11:50:28;4.23;;;3.93;;
3541;SDS011;1785;47.388;8.538;2022-09-24T11:53:05;5.03;;;4.53;;
3541;SDS011;1785;47.388;8.538;2022-09-24T11:55:38;5.03;;;4.20;;
3541;SDS011;1785;47.388;8.538;2022-09-24T11:58:11;4.43;;;4.07;;
3541;SDS011;1785;47.388;8.538;2022-09-24T12:00:42;4.10;;;3.77;;
3541;SDS011;1785;47.388;8.538;2022-09-24T12:03:13;4.67;;;4.27;;
3541;SDS011;1785;47.388;8.538;2022-09-24T12:05:44;3.90;;;3.70;;
3541;SDS011;1785;47.388;8.538;2022-09-24T12:08:16;4.13;;;3.80;;
3541;SDS011;1785;47.388;8.538;2022-09-24T12:10:53;3.73;;;3.40;;
3541;SDS011;1785;47.388;8.538;2022-09-24T12:13:27;3.87;;;3.53;;
3541;SDS011;1785;47.388;8.538;2022-09-24T12:15:59;3.80;;;3.50;;
3541;SDS011;1785;47.388;8.538;2022-09-24T12:18:30;3.10;;;2.90;;
3541;SDS011;1785;47.388;8.538;2022-09-24T12:21:03;3.87;;;3.57;;
3541;SDS011;1785;47.388;8.538;2022-09-24T12:23:36;4.67;;;4.00;;
3541;SDS011;1785;47.388;8.538;2022-09-24T12:26:05;3.80;;;3.50;;
3541;SDS011;1785;47.388;8.538;2022-09-24T12:28:35;4.87;;;4.40;;
3541;SDS011;1785;47.388;8.538;2022-09-24T12:31:32;3.97;;;3.67;;
3541;SDS011;1785;47.388;8.538;2022-09-24T12:34:25;3.60;;;3.40;;
3541;SDS011;1785;47.388;8.538;2022-09-24T12:37:00;3.23;;;2.93;;
3541;SDS011;1785;47.388;8.538;2022-09-24T12:39:30;3.30;;;3.00;;
3541;SDS011;1785;47.388;8.538;2022-09-24T12:42:03;3.20;;;3.00;;
3541;SDS011;1785;47.388;8.538;2022-09-24T12:44:38;5.73;;;2.77;;
3541;SDS011;1785;47.388;8.538;2022-09-24T12:47:16;3.03;;;2.83;;
3541;SDS011;1785;47.388;8.538;2022-09-24T12:49:46;3.57;;;3.30;;
3541;SDS011;1785;47.388;8.538;2022-09-24T12:52:17;3.23;;;3.03;;
3541;SDS011;1785;47.388;8.538;2022-09-24T12:54:52;3.07;;;2.87;;
3541;SDS011;1785;47.388;8.538;2022-09-24T12:57:24;3.83;;;3.53;;
3541;SDS011;1785;47.388;8.538;2022-09-24T12:59:53;3.00;;;2.80;;
3541;SDS011;1785;47.388;8.538;2022-09-24T13:02:21;3.43;;;3.23;;
3541;SDS011;1785;47.388;8.538;2022-09-24T13:04:50;4.27;;;3.87;;
3541;SDS011;1785;47.388;8.538;2022-09-24T13:07:33;3.90;;;3.60;;
3541;SDS011;1785;47.388;8.538;2022-09-24T13:12:50;2.93;;;2.70;;
3541;SDS011;1785;47.388;8.538;2022-09-24T13:18:04;3.47;;;3.17;;
3541;SDS011;1785;47.388;8.538;2022-09-24T13:20:42;3.40;;;3.10;;
3541;SDS011;1785;47.388;8.538;2022-09-24T13:23:13;3.70;;;3.40;;
3541;SDS011;1785;47.388;8.538;2022-09-24T13:25:55;2.97;;;2.77;;
3541;SDS011;1785;47.388;8.538;2022-09-24T13:28:25;3.43;;;3.23;;
3541;SDS011;1785;47.388;8.538;2022-09-24T13:30:54;3.27;;;2.97;;
3541;SDS011;1785;47.388;8.538;2022-09-24T13:33:27;3.20;;;2.90;;
3541;SDS011;1785;47.388;8.538;2022-09-24T13:36:00;3.50;;;3.30;;
3541;SDS011;1785;47.388;8.538;2022-09-24T13:38:31;3.40;;;3.20;;
3541;SDS011;1785;47.388;8.538;2022-09-24T13:41:03;3.90;;;3.60;;
3541;SDS011;1785;47.388;8.538;2022-09-24T13:43:42;3.50;;;3.20;;
3541;SDS011;1785;47.388;8.538;2022-09-24T13:46:14;3.60;;;3.30;;
3541;SDS011;1785;47.388;8.538;2022-09-24T13:48:43;5.33;;;3.47;;
3541;SDS011;1785;47.388;8.538;2022-09-24T13:51:15;3.37;;;3.17;;
3541;SDS011;1785;47.388;8.538;2022-09-24T13:53:47;4.30;;;3.60;;
3541;SDS011;1785;47.388;8.538;2022-09-24T13:56:17;2.90;;;2.70;;
3541;SDS011;1785;47.388;8.538;2022-09-24T13:58:45;3.27;;;3.07;;
3541;SDS011;1785;47.388;8.538;2022-09-24T14:01:15;3.43;;;3.10;;
3541;SDS011;1785;47.388;8.538;2022-09-24T14:03:50;3.77;;;3.47;;
3541;SDS011;1785;47.388;8.538;2022-09-24T14:06:18;3.60;;;3.30;;
3541;SDS011;1785;47.388;8.538;2022-09-24T14:08:58;3.60;;;3.30;;
3541;SDS011;1785;47.388;8.538;2022-09-24T14:11:25;3.00;;;2.80;;
3541;SDS011;1785;47.388;8.538;2022-09-24T14:13:52;3.00;;;2.80;;
3541;SDS011;1785;47.388;8.538;2022-09-24T14:16:20;3.23;;;3.03;;
3541;SDS011;1785;47.388;8.538;2022-09-24T14:18:59;3.20;;;3.00;;
3541;SDS011;1785;47.388;8.538;2022-09-24T14:21:27;3.00;;;2.80;;
3541;SDS011;1785;47.388;8.538;2022-09-24T14:24:00;3.60;;;3.30;;
3541;SDS011;1785;47.388;8.538;2022-09-24T14:26:29;2.80;;;2.70;;
3541;SDS011;1785;47.388;8.538;2022-09-24T14:29:04;2.90;;;2.70;;
3541;SDS011;1785;47.388;8.538;2022-09-24T14:31:41;3.13;;;2.93;;
3541;SDS011;1785;47.388;8.538;2022-09-24T14:34:12;2.83;;;2.63;;
3541;SDS011;1785;47.388;8.538;2022-09-24T14:36:50;2.40;;;2.20;;
3541;SDS011;1785;47.388;8.538;2022-09-24T14:39:17;2.50;;;2.30;;
3541;SDS011;1785;47.388;8.538;2022-09-24T14:41:49;2.80;;;2.60;;
3541;SDS011;1785;47.388;8.538;2022-09-24T14:44:19;4.37;;;3.90;;
3541;SDS011;1785;47.388;8.538;2022-09-24T14:46:48;3.17;;;2.97;;
3541;SDS011;1785;47.388;8.538;2022-09-24T14:49:17;3.22;;;2.13;;
3541;SDS011;1785;47.388;8.538;2022-09-24T14:51:52;3.00;;;2.80;;
3541;SDS011;1785;47.388;8.538;2022-09-24T14:54:22;4.17;;;3.13;;
3541;SDS011;1785;47.388;8.538;2022-09-24T14:56:53;3.30;;;3.00;;
3541;SDS011;1785;47.388;8.538;2022-09-24T14:59:26;3.20;;;2.70;;
3541;SDS011;1785;47.388;8.538;2022-09-24T15:02:01;3.80;;;3.50;;
3541;SDS011;1785;47.388;8.538;2022-09-24T15:04:39;4.07;;;3.77;;
3541;SDS011;1785;47.388;8.538;2022-09-24T15:07:13;3.13;;;2.93;;
3541;SDS011;1785;47.388;8.538;2022-09-24T15:09:42;3.80;;;3.50;;
3541;SDS011;1785;47.388;8.538;2022-09-24T15:12:13;3.20;;;2.93;;
3541;SDS011;1785;47.388;8.538;2022-09-24T15:14:52;3.80;;;3.50;;
3541;SDS011;1785;47.388;8.538;2022-09-24T15:17:21;2.70;;;2.50;;
3541;SDS011;1785;47.388;8.538;2022-09-24T15:19:48;2.97;;;2.77;;
3541;SDS011;1785;47.388;8.538;2022-09-24T15:22:18;3.43;;;3.13;;
3541;SDS011;1785;47.388;8.538;2022-09-24T15:24:46;5.40;;;3.60;;
3541;SDS011;1785;47.388;8.538;2022-09-24T15:27:14;3.47;;;3.20;;
3541;SDS011;1785;47.388;8.538;2022-09-24T15:29:44;3.83;;;3.40;;
3541;SDS011;1785;47.388;8.538;2022-09-24T15:32:13;5.20;;;4.00;;
3541;SDS011;1785;47.388;8.538;2022-09-24T15:34:41;4.33;;;3.90;;
3541;SDS011;1785;47.388;8.538;2022-09-24T15:37:08;3.37;;;3.17;;
3541;SDS011;1785;47.388;8.538;2022-09-24T15:39:37;3.90;;;3.60;;